Time;durP1;ratioP1;P1;durP2;ratioP2;P2;SDS_P1;SDS_P2;PMS_P1;PMS_P2;Temp;Humidity;BMP_temperature;BMP_pressure;BME280_temperature;BME280_humidity;BME280_pressure;Samples;Min_cycle;Max_cycle;Signal;HPM_P1;HPM_P2
2022/03/10 00:01:55;;;;;;;18.23;12.63;;;;;;;;;;5054586;28;20112;-70
2022/03/10 00:04:21;;;;;;;20.75;15.43;;;;;;;;;;5052007;28;20096;-62
2022/03/10 00:06:46;;;;;;;21.45;15.57;;;;;;;;;;5053460;28;20047;-70
2022/03/10 00:09:11;;;;;;;20.38;16.88;;;;;;;;;;5051557;28;20666;-70
2022/03/10 00:11:37;;;;;;;17.42;14.27;;;;;;;;;;5049633;28;20033;-63
2022/03/10 00:14:03;;;;;;;15.10;12.57;;;;;;;;;;5049729;28;20104;-68
2022/03/10 00:16:28;;;;;;;14.75;12.95;;;;;;;;;;5048091;28;20387;-62
2022/03/10 00:18:54;;;;;;;13.15;11.63;;;;;;;;;;5048544;28;20021;-69
2022/03/10 00:21:19;;;;;;;14.35;12.63;;;;;;;;;;5052672;28;20033;-69
2022/03/10 00:23:45;;;;;;;12.93;11.57;;;;;;;;;;5053347;28;20091;-67
2022/03/10 00:26:10;;;;;;;12.20;10.90;;;;;;;;;;5053546;28;20466;-63
2022/03/10 00:28:36;;;;;;;11.43;9.90;;;;;;;;;;5052679;28;20037;-62
2022/03/10 00:31:02;;;;;;;11.77;10.57;;;;;;;;;;5052563;28;20029;-62
2022/03/10 00:33:27;;;;;;;12.90;10.52;;;;;;;;;;5052367;28;20059;-62
2022/03/10 00:35:52;;;;;;;13.00;11.38;;;;;;;;;;5049660;28;20565;-62
2022/03/10 00:38:18;;;;;;;11.43;9.93;;;;;;;;;;5053549;28;20025;-62
2022/03/10 00:40:44;;;;;;;13.52;11.50;;;;;;;;;;5052993;28;20116;-61
2022/03/10 00:43:13;;;;;;;13.68;11.55;;;;;;;;;;5049958;28;20032;-62
2022/03/10 00:45:39;;;;;;;13.65;10.50;;;;;;;;;;5048813;28;20033;-61
2022/03/10 00:48:04;;;;;;;13.85;12.38;;;;;;;;;;5048943;28;20104;-62
2022/03/10 00:50:30;;;;;;;14.38;11.55;;;;;;;;;;5048911;28;20029;-69
2022/03/10 00:52:56;;;;;;;14.48;12.27;;;;;;;;;;5050602;28;20051;-69
2022/03/10 00:55:21;;;;;;;13.90;11.23;;;;;;;;;;5052807;28;20147;-63
2022/03/10 00:57:48;;;;;;;15.45;12.43;;;;;;;;;;5052985;28;20082;-69
2022/03/10 01:00:16;;;;;;;21.77;15.43;;;;;;;;;;5052524;28;20079;-70
2022/03/10 01:02:41;;;;;;;25.90;16.90;;;;;;;;;;5050598;28;20387;-63
2022/03/10 01:05:08;;;;;;;22.80;15.50;;;;;;;;;;5052664;28;20037;-67
2022/03/10 01:07:33;;;;;;;15.30;13.05;;;;;;;;;;5052560;28;20025;-62
2022/03/10 01:09:59;;;;;;;15.25;10.88;;;;;;;;;;5052005;28;20036;-62
2022/03/10 01:12:24;;;;;;;15.93;12.23;;;;;;;;;;5053225;28;20074;-63
2022/03/10 01:14:50;;;;;;;11.13;9.88;;;;;;;;;;5052654;28;20044;-70
2022/03/10 01:17:15;;;;;;;9.60;8.43;;;;;;;;;;5051252;28;20118;-69
2022/03/10 01:19:41;;;;;;;9.20;8.30;;;;;;;;;;5048372;28;20120;-63
2022/03/10 01:22:07;;;;;;;10.15;7.78;;;;;;;;;;5046574;28;20036;-70
2022/03/10 01:24:34;;;;;;;12.05;9.00;;;;;;;;;;5047109;28;20037;-71
2022/03/10 01:26:59;;;;;;;14.50;10.25;;;;;;;;;;5047998;28;20032;-70
2022/03/10 01:29:24;;;;;;;15.57;11.20;;;;;;;;;;5051835;28;20024;-63
2022/03/10 01:31:51;;;;;;;12.05;8.27;;;;;;;;;;5052445;28;20017;-63
2022/03/10 01:34:17;;;;;;;9.35;7.75;;;;;;;;;;5050919;28;20025;-63
2022/03/10 01:36:42;;;;;;;7.03;6.38;;;;;;;;;;5052496;28;20053;-70
2022/03/10 01:39:08;;;;;;;8.07;6.70;;;;;;;;;;5052032;28;20032;-63
2022/03/10 01:41:34;;;;;;;6.80;5.82;;;;;;;;;;5050891;28;20035;-69
2022/03/10 01:44:08;;;;;;;7.25;6.53;;;;;;;;;;5051163;28;20434;-68
2022/03/10 01:46:34;;;;;;;6.80;6.20;;;;;;;;;;5051489;28;20448;-62
2022/03/10 01:49:00;;;;;;;7.28;5.85;;;;;;;;;;5049155;28;20371;-68
2022/03/10 01:51:26;;;;;;;6.10;5.47;;;;;;;;;;5047830;28;20047;-68
2022/03/10 01:53:52;;;;;;;11.05;9.20;;;;;;;;;;5047652;28;20029;-62
2022/03/10 01:56:18;;;;;;;9.63;8.65;;;;;;;;;;5047414;28;20029;-63
2022/03/10 01:58:44;;;;;;;8.65;7.60;;;;;;;;;;5049497;28;20021;-69
2022/03/10 02:01:10;;;;;;;10.27;8.35;;;;;;;;;;5050752;28;20562;-62
2022/03/10 02:03:37;;;;;;;5.78;5.22;;;;;;;;;;5046152;28;20680;-69
2022/03/10 02:06:02;;;;;;;8.23;7.38;;;;;;;;;;5047470;28;20044;-62
2022/03/10 02:11:12;;;;;;;9.82;7.65;;;;;;;;;;5051800;28;20029;-69
2022/03/10 02:13:37;;;;;;;8.52;7.72;;;;;;;;;;5047154;28;20020;-62
2022/03/10 02:18:47;;;;;;;9.20;8.30;;;;;;;;;;5047337;28;20036;-65
2022/03/10 02:21:14;;;;;;;8.00;7.20;;;;;;;;;;5047236;28;20017;-62
2022/03/10 02:23:39;;;;;;;8.00;7.20;;;;;;;;;;5046605;28;20581;-69
2022/03/10 02:26:05;;;;;;;7.82;7.13;;;;;;;;;;5047204;28;20418;-62
2022/03/10 02:28:32;;;;;;;10.00;8.57;;;;;;;;;;5048207;28;20075;-62
2022/03/10 02:30:58;;;;;;;7.63;6.93;;;;;;;;;;5051458;28;20119;-69
2022/03/10 02:33:24;;;;;;;8.70;7.80;;;;;;;;;;5051961;28;20113;-62
2022/03/10 02:35:49;;;;;;;8.85;8.05;;;;;;;;;;5052052;28;20025;-69
2022/03/10 02:38:18;;;;;;;9.20;7.40;;;;;;;;;;5049328;28;20043;-63
2022/03/10 02:40:43;;;;;;;8.50;7.70;;;;;;;;;;5052611;28;20075;-69
2022/03/10 02:43:09;;;;;;;8.80;7.90;;;;;;;;;;5048840;28;20037;-68
2022/03/10 02:45:34;;;;;;;8.48;6.50;;;;;;;;;;5050158;28;20638;-64
2022/03/10 02:48:00;;;;;;;7.30;6.43;;;;;;;;;;5050518;28;20029;-62
2022/03/10 02:50:25;;;;;;;6.90;6.20;;;;;;;;;;5045573;28;20017;-67
2022/03/10 02:52:51;;;;;;;6.30;5.68;;;;;;;;;;5046794;28;20032;-62
2022/03/10 02:55:16;;;;;;;7.20;6.45;;;;;;;;;;5046508;28;20063;-62
2022/03/10 02:57:42;;;;;;;6.80;5.70;;;;;;;;;;5046849;28;20082;-68
2022/03/10 03:00:08;;;;;;;7.57;6.85;;;;;;;;;;5050901;28;20518;-68
2022/03/10 03:02:33;;;;;;;6.40;5.80;;;;;;;;;;5050159;28;20055;-69
2022/03/10 03:04:59;;;;;;;7.13;6.07;;;;;;;;;;5051221;28;20020;-68
2022/03/10 03:07:24;;;;;;;6.80;5.95;;;;;;;;;;5051367;28;20050;-68
2022/03/10 03:09:50;;;;;;;6.57;5.72;;;;;;;;;;5049796;28;20043;-68
2022/03/10 03:12:16;;;;;;;5.75;5.20;;;;;;;;;;5049915;28;20033;-70
2022/03/10 03:14:41;;;;;;;5.97;5.47;;;;;;;;;;5051448;28;20025;-62
2022/03/10 03:17:07;;;;;;;5.25;4.75;;;;;;;;;;5051017;28;20029;-70
2022/03/10 03:19:33;;;;;;;4.70;4.30;;;;;;;;;;5051155;28;20028;-62
2022/03/10 03:21:58;;;;;;;4.55;4.15;;;;;;;;;;5049548;28;20048;-62
2022/03/10 03:24:24;;;;;;;4.40;4.10;;;;;;;;;;5051295;28;20364;-62
2022/03/10 03:26:51;;;;;;;4.32;4.03;;;;;;;;;;5047102;28;20045;-70
2022/03/10 03:29:16;;;;;;;4.50;4.10;;;;;;;;;;5046541;28;20036;-70
2022/03/10 03:31:42;;;;;;;4.65;4.25;;;;;;;;;;5045140;28;20024;-62
2022/03/10 03:34:10;;;;;;;4.35;3.95;;;;;;;;;;5046154;28;20025;-70
2022/03/10 03:36:37;;;;;;;4.30;3.90;;;;;;;;;;5048076;28;20051;-68
2022/03/10 03:39:02;;;;;;;4.45;4.00;;;;;;;;;;5050806;28;20031;-68
2022/03/10 03:41:31;;;;;;;4.40;4.00;;;;;;;;;;5050952;28;20214;-68
2022/03/10 03:43:57;;;;;;;4.10;3.70;;;;;;;;;;5050935;28;20025;-63
2022/03/10 03:46:29;;;;;;;3.92;3.63;;;;;;;;;;5050834;28;20064;-68
2022/03/10 03:48:55;;;;;;;4.95;4.13;;;;;;;;;;5050166;28;20095;-68
2022/03/10 03:51:21;;;;;;;4.40;4.00;;;;;;;;;;5049609;28;20036;-62
2022/03/10 03:53:47;;;;;;;4.25;3.85;;;;;;;;;;5048828;28;20040;-68
2022/03/10 03:56:12;;;;;;;4.57;3.88;;;;;;;;;;5049598;28;20035;-62
2022/03/10 03:58:38;;;;;;;3.97;3.67;;;;;;;;;;5049926;28;20040;-68
2022/03/10 04:01:04;;;;;;;4.95;4.13;;;;;;;;;;5048606;28;20021;-68
2022/03/10 04:03:29;;;;;;;4.03;3.63;;;;;;;;;;5031746;28;20124;-62
2022/03/10 04:05:55;;;;;;;3.63;3.33;;;;;;;;;;5052246;28;20033;-68
2022/03/10 04:08:21;;;;;;;4.45;4.05;;;;;;;;;;5054171;28;20957;-69
2022/03/10 04:10:47;;;;;;;4.82;3.97;;;;;;;;;;5054396;28;20490;-69
2022/03/10 04:13:12;;;;;;;4.32;4.00;;;;;;;;;;5053542;28;20036;-69
2022/03/10 04:15:38;;;;;;;3.70;3.40;;;;;;;;;;5053145;28;20032;-68
2022/03/10 04:18:04;;;;;;;4.68;3.70;;;;;;;;;;5035971;28;20028;-69
2022/03/10 04:20:29;;;;;;;4.30;3.90;;;;;;;;;;5053083;28;20029;-69
2022/03/10 04:22:55;;;;;;;3.95;3.65;;;;;;;;;;5052376;28;20048;-62
2022/03/10 04:25:22;;;;;;;5.15;4.28;;;;;;;;;;5052757;28;20167;-69
2022/03/10 04:27:51;;;;;;;4.70;4.20;;;;;;;;;;5053959;28;20390;-62
2022/03/10 04:30:18;;;;;;;4.28;3.92;;;;;;;;;;5052257;28;20474;-62
2022/03/10 04:32:45;;;;;;;4.72;4.32;;;;;;;;;;5050726;28;20043;-62
2022/03/10 04:35:12;;;;;;;4.07;3.72;;;;;;;;;;5049151;28;20025;-62
2022/03/10 04:37:37;;;;;;;4.60;4.13;;;;;;;;;;5049435;28;21105;-62
2022/03/10 04:40:06;;;;;;;4.80;4.40;;;;;;;;;;5047975;28;20127;-68
2022/03/10 04:42:32;;;;;;;4.20;3.90;;;;;;;;;;5049688;28;20025;-69
2022/03/10 04:44:57;;;;;;;4.57;4.28;;;;;;;;;;5053894;28;20024;-69
2022/03/10 04:47:23;;;;;;;5.00;4.55;;;;;;;;;;5053539;28;20029;-69
2022/03/10 04:49:52;;;;;;;6.00;4.57;;;;;;;;;;5053104;28;20372;-69
2022/03/10 04:52:17;;;;;;;4.93;4.53;;;;;;;;;;5053418;28;20029;-62
2022/03/10 04:54:45;;;;;;;5.18;4.47;;;;;;;;;;5052176;28;20070;-61
2022/03/10 04:57:10;;;;;;;6.03;4.80;;;;;;;;;;5053814;28;20112;-63
2022/03/10 04:59:36;;;;;;;5.03;4.63;;;;;;;;;;5054673;28;20127;-62
2022/03/10 05:02:02;;;;;;;4.80;4.50;;;;;;;;;;5054745;28;20461;-63
2022/03/10 05:04:27;;;;;;;5.22;4.78;;;;;;;;;;5054661;28;20086;-62
2022/03/10 05:06:53;;;;;;;5.40;4.85;;;;;;;;;;5053943;28;20033;-63
2022/03/10 05:09:18;;;;;;;8.40;7.47;;;;;;;;;;5054275;28;20021;-62
2022/03/10 05:11:44;;;;;;;6.57;5.97;;;;;;;;;;5053896;28;20020;-62
2022/03/10 05:14:10;;;;;;;8.93;8.07;;;;;;;;;;5054539;28;20064;-63
2022/03/10 05:16:35;;;;;;;6.03;5.18;;;;;;;;;;5053951;28;20028;-61
2022/03/10 05:19:01;;;;;;;10.68;7.50;;;;;;;;;;5054136;28;20016;-62
2022/03/10 05:21:26;;;;;;;6.70;5.90;;;;;;;;;;5053989;28;20119;-62
2022/03/10 05:23:52;;;;;;;11.25;10.10;;;;;;;;;;5053716;28;20057;-62
2022/03/10 05:26:18;;;;;;;5.95;5.45;;;;;;;;;;5053966;28;20025;-62
2022/03/10 05:28:43;;;;;;;32.45;25.42;;;;;;;;;;5053310;28;20401;-63
2022/03/10 05:31:09;;;;;;;39.55;31.77;;;;;;;;;;5054623;28;20017;-63
2022/03/10 05:33:34;;;;;;;141.52;99.72;;;;;;;;;;5054643;28;20399;-62
2022/03/10 05:36:00;;;;;;;11.27;9.20;;;;;;;;;;5053077;28;20040;-62
2022/03/10 05:38:25;;;;;;;16.65;13.60;;;;;;;;;;5053392;28;20017;-62
2022/03/10 05:40:51;;;;;;;12.48;11.18;;;;;;;;;;5054130;28;20047;-62
2022/03/10 05:43:17;;;;;;;26.75;20.92;;;;;;;;;;5053826;28;20032;-62
2022/03/10 05:45:42;;;;;;;20.08;15.80;;;;;;;;;;5053778;28;20032;-62
2022/03/10 05:48:08;;;;;;;152.80;93.50;;;;;;;;;;5053697;28;20020;-62
2022/03/10 05:50:35;;;;;;;11.48;9.07;;;;;;;;;;5052721;28;20033;-62
2022/03/10 05:53:01;;;;;;;47.90;32.15;;;;;;;;;;5053796;28;20064;-62
2022/03/10 05:55:26;;;;;;;10.95;9.73;;;;;;;;;;5050708;28;20287;-62
2022/03/10 05:57:52;;;;;;;9.07;7.60;;;;;;;;;;5054323;28;20052;-62
2022/03/10 06:00:18;;;;;;;6.03;5.43;;;;;;;;;;5052914;28;20415;-61
2022/03/10 06:02:43;;;;;;;7.18;6.47;;;;;;;;;;5053782;28;20031;-62
2022/03/10 06:05:09;;;;;;;7.90;7.10;;;;;;;;;;5053924;28;20033;-63
2022/03/10 06:07:34;;;;;;;7.95;7.15;;;;;;;;;;5054162;28;20017;-62
2022/03/10 06:10:00;;;;;;;8.00;7.20;;;;;;;;;;5054202;28;20057;-61
2022/03/10 06:12:30;;;;;;;9.90;8.85;;;;;;;;;;5053923;28;20154;-62
2022/03/10 06:14:59;;;;;;;10.38;9.38;;;;;;;;;;5053822;28;20032;-62
2022/03/10 06:17:25;;;;;;;11.15;10.05;;;;;;;;;;5053935;28;20060;-62
2022/03/10 06:19:50;;;;;;;9.07;7.38;;;;;;;;;;5052892;28;20056;-63
2022/03/10 06:22:16;;;;;;;11.00;8.30;;;;;;;;;;5053401;28;20037;-62
2022/03/10 06:24:42;;;;;;;8.25;7.43;;;;;;;;;;5053260;28;20052;-62
2022/03/10 06:27:08;;;;;;;16.15;11.52;;;;;;;;;;5053659;28;20048;-62
2022/03/10 06:29:33;;;;;;;34.33;28.20;;;;;;;;;;5053620;28;20123;-62
2022/03/10 06:31:59;;;;;;;11.60;9.25;;;;;;;;;;5053463;28;20028;-62
2022/03/10 06:34:24;;;;;;;9.82;8.57;;;;;;;;;;5053550;28;20021;-62
2022/03/10 06:36:50;;;;;;;7.47;6.78;;;;;;;;;;5053489;28;20363;-62
2022/03/10 06:39:15;;;;;;;9.50;8.60;;;;;;;;;;5052250;28;20111;-62
2022/03/10 06:41:41;;;;;;;36.30;29.05;;;;;;;;;;5053399;28;20364;-68
2022/03/10 06:44:07;;;;;;;11.60;10.05;;;;;;;;;;5053440;28;20075;-69
2022/03/10 06:46:32;;;;;;;12.35;10.63;;;;;;;;;;5053617;28;20056;-69
2022/03/10 06:48:58;;;;;;;16.20;12.70;;;;;;;;;;5053317;28;20032;-69
2022/03/10 06:51:23;;;;;;;6.40;5.63;;;;;;;;;;5052586;28;20009;-69
2022/03/10 06:53:49;;;;;;;7.20;5.47;;;;;;;;;;5052383;28;20025;-69
2022/03/10 06:56:14;;;;;;;6.05;5.05;;;;;;;;;;5052769;28;20063;-69
2022/03/10 06:58:42;;;;;;;6.32;5.47;;;;;;;;;;5052612;28;20045;-69
2022/03/10 07:01:08;;;;;;;7.28;4.88;;;;;;;;;;5052714;28;20012;-70
2022/03/10 07:03:34;;;;;;;4.90;4.50;;;;;;;;;;5051897;28;20364;-69
2022/03/10 07:05:59;;;;;;;4.63;4.25;;;;;;;;;;5052459;28;20013;-69
2022/03/10 07:08:25;;;;;;;7.32;5.75;;;;;;;;;;5052636;28;20027;-69
2022/03/10 07:10:50;;;;;;;12.68;7.43;;;;;;;;;;5051317;28;20013;-70
2022/03/10 07:13:18;;;;;;;4.88;4.38;;;;;;;;;;5050890;28;20111;-69
2022/03/10 07:15:43;;;;;;;5.95;4.60;;;;;;;;;;5052759;28;20105;-67
2022/03/10 07:18:09;;;;;;;4.70;4.40;;;;;;;;;;5052315;28;20449;-67
2022/03/10 07:20:35;;;;;;;10.73;8.02;;;;;;;;;;5051391;28;20512;-70
2022/03/10 07:23:00;;;;;;;5.10;4.60;;;;;;;;;;5051879;28;20491;-68
2022/03/10 07:25:26;;;;;;;4.82;4.05;;;;;;;;;;5052735;28;20036;-68
2022/03/10 07:27:52;;;;;;;4.57;3.90;;;;;;;;;;5052576;28;20017;-70
2022/03/10 07:30:18;;;;;;;4.50;4.10;;;;;;;;;;5053755;28;20736;-68
2022/03/10 07:32:43;;;;;;;4.30;3.90;;;;;;;;;;5056864;28;20013;-68
2022/03/10 07:35:09;;;;;;;20.00;17.95;;;;;;;;;;5056836;28;20032;-68
2022/03/10 07:37:34;;;;;;;3.63;3.00;;;;;;;;;;5055035;28;20028;-66
2022/03/10 07:40:00;;;;;;;9.00;8.07;;;;;;;;;;5055946;28;20033;-67
2022/03/10 07:42:26;;;;;;;35.45;31.95;;;;;;;;;;5056689;28;20024;-66
2022/03/10 07:44:54;;;;;;;93.63;72.32;;;;;;;;;;5056639;28;20487;-66
2022/03/10 07:47:19;;;;;;;26.55;23.92;;;;;;;;;;5054812;28;20025;-66
2022/03/10 07:49:44;;;;;;;9.13;8.40;;;;;;;;;;5055468;28;20033;-66
2022/03/10 07:52:10;;;;;;;5.80;5.20;;;;;;;;;;5055930;28;20027;-66
2022/03/10 07:54:35;;;;;;;4.68;3.75;;;;;;;;;;5055678;28;20355;-66
2022/03/10 07:57:01;;;;;;;4.72;4.20;;;;;;;;;;5055694;28;20013;-68
2022/03/10 07:59:28;;;;;;;4.07;3.78;;;;;;;;;;5055499;28;20781;-67
2022/03/10 08:01:54;;;;;;;4.10;3.72;;;;;;;;;;5051848;28;20025;-66
2022/03/10 08:04:20;;;;;;;4.35;3.78;;;;;;;;;;5055675;28;20024;-66
2022/03/10 08:06:46;;;;;;;4.28;3.63;;;;;;;;;;5055392;28;20512;-66
2022/03/10 08:09:12;;;;;;;4.05;3.53;;;;;;;;;;5054589;28;20025;-66
2022/03/10 08:11:38;;;;;;;4.15;3.85;;;;;;;;;;5055640;28;20031;-66
2022/03/10 08:14:04;;;;;;;3.60;3.28;;;;;;;;;;5056098;28;20112;-66
2022/03/10 08:16:30;;;;;;;3.67;3.38;;;;;;;;;;5055949;28;20025;-65
2022/03/10 08:18:56;;;;;;;3.65;3.45;;;;;;;;;;5056037;28;20052;-65
2022/03/10 08:21:21;;;;;;;4.20;3.80;;;;;;;;;;5056106;28;20127;-65
2022/03/10 08:23:47;;;;;;;4.15;3.85;;;;;;;;;;5055573;28;20052;-66
2022/03/10 08:26:13;;;;;;;3.92;3.63;;;;;;;;;;5055909;28;20029;-66
2022/03/10 08:28:39;;;;;;;5.80;4.50;;;;;;;;;;5055685;28;20021;-65
2022/03/10 08:31:04;;;;;;;8.10;5.75;;;;;;;;;;5055811;28;20399;-66
2022/03/10 08:33:33;;;;;;;5.78;4.20;;;;;;;;;;5055808;28;20071;-65
2022/03/10 08:35:59;;;;;;;4.18;3.78;;;;;;;;;;5055645;28;20029;-66
2022/03/10 08:38:25;;;;;;;4.95;4.32;;;;;;;;;;5055883;28;20013;-66
2022/03/10 08:40:52;;;;;;;4.95;4.20;;;;;;;;;;5054748;28;20059;-65
2022/03/10 08:43:17;;;;;;;4.50;4.10;;;;;;;;;;5053192;28;20017;-65
2022/03/10 08:45:43;;;;;;;6.93;6.22;;;;;;;;;;5055231;28;20037;-66
2022/03/10 08:48:09;;;;;;;4.63;4.22;;;;;;;;;;5055000;28;20021;-66
2022/03/10 08:50:35;;;;;;;3.47;3.28;;;;;;;;;;5055699;28;20025;-66
2022/03/10 08:53:00;;;;;;;5.43;4.22;;;;;;;;;;5055586;28;20482;-72
2022/03/10 08:55:26;;;;;;;4.95;4.40;;;;;;;;;;5055443;28;20037;-66
2022/03/10 08:57:51;;;;;;;4.60;4.05;;;;;;;;;;5053984;28;20056;-66
2022/03/10 09:00:20;;;;;;;4.35;3.95;;;;;;;;;;5054099;28;20033;-66
2022/03/10 09:02:46;;;;;;;4.60;4.20;;;;;;;;;;5055037;28;20110;-66
2022/03/10 09:05:12;;;;;;;9.93;7.50;;;;;;;;;;5054941;28;20083;-66
2022/03/10 09:07:37;;;;;;;7.78;6.15;;;;;;;;;;5055001;28;20040;-65
2022/03/10 09:10:04;;;;;;;7.78;7.00;;;;;;;;;;5054899;28;20021;-65
2022/03/10 09:12:29;;;;;;;4.57;4.07;;;;;;;;;;5054908;28;20019;-65
2022/03/10 09:14:55;;;;;;;4.63;4.22;;;;;;;;;;5053858;28;20446;-66
2022/03/10 09:17:20;;;;;;;4.05;3.75;;;;;;;;;;5054438;28;20017;-65
2022/03/10 09:19:46;;;;;;;78.95;55.10;;;;;;;;;;5054530;28;20433;-65
2022/03/10 09:22:12;;;;;;;48.10;33.63;;;;;;;;;;5054232;28;20471;-65
2022/03/10 09:24:38;;;;;;;66.63;51.00;;;;;;;;;;5054263;28;20040;-65
2022/03/10 09:27:05;;;;;;;25.92;21.05;;;;;;;;;;5054283;28;20079;-65
2022/03/10 09:29:31;;;;;;;7.40;6.70;;;;;;;;;;5053178;28;20403;-65
2022/03/10 09:31:56;;;;;;;5.57;5.15;;;;;;;;;;5054441;28;20028;-65
2022/03/10 09:34:21;;;;;;;5.70;5.20;;;;;;;;;;5053054;28;20032;-66
2022/03/10 09:36:47;;;;;;;5.43;4.93;;;;;;;;;;5053841;28;20060;-66
2022/03/10 09:39:13;;;;;;;4.57;4.18;;;;;;;;;;5054049;28;20116;-66
2022/03/10 09:41:39;;;;;;;4.35;4.05;;;;;;;;;;5053979;28;20017;-66
2022/03/10 09:44:26;;;;;;;4.70;4.30;;;;;;;;;;5054015;28;20162;-66
2022/03/10 09:46:52;;;;;;;4.80;3.70;;;;;;;;;;5054061;28;20440;-66
2022/03/10 09:49:19;;;;;;;4.93;4.40;;;;;;;;;;5054391;28;20017;-65
2022/03/10 09:51:46;;;;;;;5.07;4.57;;;;;;;;;;5054287;28;20025;-66
2022/03/10 09:54:12;;;;;;;6.55;5.25;;;;;;;;;;5053671;28;20017;-66
2022/03/10 09:56:40;;;;;;;6.43;5.80;;;;;;;;;;5053826;28;20025;-66
2022/03/10 09:59:08;;;;;;;126.07;57.40;;;;;;;;;;5053737;28;20027;-66
2022/03/10 10:01:34;;;;;;;10.25;6.05;;;;;;;;;;5052357;28;20033;-66
2022/03/10 10:04:00;;;;;;;4.53;4.10;;;;;;;;;;5053515;28;20021;-66
2022/03/10 10:06:25;;;;;;;4.70;4.30;;;;;;;;;;5052179;28;20479;-66
2022/03/10 10:08:55;;;;;;;4.28;3.88;;;;;;;;;;5053589;28;20017;-66
2022/03/10 10:11:29;;;;;;;7.38;4.35;;;;;;;;;;5052643;28;20057;-66
2022/03/10 10:13:55;;;;;;;26.33;17.17;;;;;;;;;;5053667;28;20029;-66
2022/03/10 10:16:21;;;;;;;9.02;6.18;;;;;;;;;;5052379;28;20052;-66
2022/03/10 10:18:53;;;;;;;3.95;3.60;;;;;;;;;;5052109;28;20075;-66
2022/03/10 10:21:19;;;;;;;7.50;5.93;;;;;;;;;;5053386;28;20086;-66
2022/03/10 10:23:45;;;;;;;34.92;18.77;;;;;;;;;;5051495;28;20045;-66
2022/03/10 10:26:12;;;;;;;12.70;8.63;;;;;;;;;;5052085;28;20033;-66
2022/03/10 10:28:41;;;;;;;8.43;5.95;;;;;;;;;;5052234;28;20033;-66
2022/03/10 10:31:10;;;;;;;7.13;6.50;;;;;;;;;;5053290;28;20067;-66
2022/03/10 10:33:36;;;;;;;3.90;3.60;;;;;;;;;;5053237;28;20271;-66
2022/03/10 10:36:11;;;;;;;6.80;4.68;;;;;;;;;;5052028;28;20178;-66
2022/03/10 10:38:36;;;;;;;8.45;6.43;;;;;;;;;;5053076;28;20078;-67
2022/03/10 10:41:18;;;;;;;11.43;7.78;;;;;;;;;;5051854;28;20441;-66
2022/03/10 10:43:49;;;;;;;10.50;7.55;;;;;;;;;;5051566;28;20036;-67
2022/03/10 10:46:28;;;;;;;4.68;4.28;;;;;;;;;;5053017;28;20471;-68
2022/03/10 10:48:57;;;;;;;5.87;4.60;;;;;;;;;;5051792;28;20074;-68
2022/03/10 10:51:43;;;;;;;3.90;3.60;;;;;;;;;;5053243;28;20541;-68
2022/03/10 10:54:28;;;;;;;3.63;3.30;;;;;;;;;;5032903;28;20478;-68
2022/03/10 10:56:57;;;;;;;6.13;5.55;;;;;;;;;;5033054;28;20361;-68
2022/03/10 10:59:26;;;;;;;11.93;8.00;;;;;;;;;;5031549;28;20068;-69
2022/03/10 11:02:02;;;;;;;4.65;4.32;;;;;;;;;;5032862;28;20071;-68
2022/03/10 11:04:28;;;;;;;7.70;4.57;;;;;;;;;;5032718;28;20491;-68
2022/03/10 11:06:57;;;;;;;4.78;3.67;;;;;;;;;;5036652;28;20060;-68
2022/03/10 11:09:23;;;;;;;4.43;3.78;;;;;;;;;;5035946;28;20041;-68
2022/03/10 11:11:50;;;;;;;11.30;8.93;;;;;;;;;;5035897;28;20472;-68
2022/03/10 11:14:16;;;;;;;5.60;5.10;;;;;;;;;;5037057;28;20029;-68
2022/03/10 11:16:42;;;;;;;44.97;27.02;;;;;;;;;;5036968;28;20419;-68
2022/03/10 11:19:10;;;;;;;21.23;13.90;;;;;;;;;;5035147;28;20037;-68
2022/03/10 11:21:41;;;;;;;48.38;29.77;;;;;;;;;;5036611;28;20116;-68
2022/03/10 11:24:16;;;;;;;4.93;4.45;;;;;;;;;;5035025;28;20115;-68
2022/03/10 11:27:06;;;;;;;5.30;3.40;;;;;;;;;;5035128;28;20029;-68
2022/03/10 11:29:32;;;;;;;5.25;3.72;;;;;;;;;;5032963;28;20472;-68
2022/03/10 11:31:58;;;;;;;107.47;56.42;;;;;;;;;;5037258;28;20426;-68
2022/03/10 11:34:42;;;;;;;34.75;19.25;;;;;;;;;;5036944;28;20034;-68
2022/03/10 11:37:11;;;;;;;18.63;10.65;;;;;;;;;;5037030;28;20044;-68
2022/03/10 11:39:52;;;;;;;4.60;4.20;;;;;;;;;;5035527;28;20053;-68
2022/03/10 11:42:26;;;;;;;5.13;3.95;;;;;;;;;;5036530;28;20029;-69
2022/03/10 11:45:11;;;;;;;16.33;13.40;;;;;;;;;;5036208;28;20029;-69
2022/03/10 11:47:38;;;;;;;6.25;5.65;;;;;;;;;;5036426;28;20037;-69
2022/03/10 11:50:26;;;;;;;6.25;5.13;;;;;;;;;;5036508;28;20053;-69
2022/03/10 11:52:55;;;;;;;6.15;5.55;;;;;;;;;;5032428;28;20041;-69
2022/03/10 11:55:23;;;;;;;12.98;11.55;;;;;;;;;;5036773;28;20036;-69
2022/03/10 11:57:55;;;;;;;5.32;4.82;;;;;;;;;;5036739;28;20033;-69
2022/03/10 12:14:56;;;;;;;12.80;9.55;;;;;;;;;;5036221;28;20057;-68
2022/03/10 12:17:40;;;;;;;56.90;33.10;;;;;;;;;;5035132;28;20042;-66
2022/03/10 12:20:16;;;;;;;20.10;11.60;;;;;;;;;;5036144;28;20032;-66
2022/03/10 12:23:01;;;;;;;100.93;43.85;;;;;;;;;;5035346;28;20082;-66
2022/03/10 12:25:27;;;;;;;87.75;42.20;;;;;;;;;;5034412;28;20049;-66
2022/03/10 12:27:55;;;;;;;34.88;16.50;;;;;;;;;;5036076;28;20021;-66
2022/03/10 12:30:30;;;;;;;19.33;11.00;;;;;;;;;;5035854;28;20116;-66
2022/03/10 12:32:56;;;;;;;4.25;3.53;;;;;;;;;;5036116;28;20044;-66
2022/03/10 12:35:26;;;;;;;57.15;35.65;;;;;;;;;;5036246;28;20033;-66
2022/03/10 12:37:51;;;;;;;86.95;52.00;;;;;;;;;;5035848;28;20033;-66
2022/03/10 12:40:18;;;;;;;20.45;17.45;;;;;;;;;;5035620;28;20391;-66
2022/03/10 12:42:44;;;;;;;4.65;3.78;;;;;;;;;;5035601;28;20041;-66
2022/03/10 12:45:10;;;;;;;14.68;10.90;;;;;;;;;;5035349;28;20022;-66
2022/03/10 12:47:39;;;;;;;5.60;4.57;;;;;;;;;;5034305;28;20037;-71
2022/03/10 12:50:04;;;;;;;6.20;5.00;;;;;;;;;;5035598;28;20067;-66
2022/03/10 12:52:31;;;;;;;5.30;4.50;;;;;;;;;;5035327;28;20038;-66
2022/03/10 12:54:58;;;;;;;57.58;29.27;;;;;;;;;;5035447;28;20021;-66
2022/03/10 12:57:23;;;;;;;19.42;9.75;;;;;;;;;;5035508;28;20022;-66
2022/03/10 12:59:49;;;;;;;63.33;32.45;;;;;;;;;;5035161;28;20100;-66
2022/03/10 13:02:18;;;;;;;54.28;30.17;;;;;;;;;;5034121;28;20029;-66
2022/03/10 13:04:55;;;;;;;15.90;13.30;;;;;;;;;;5035467;28;20029;-66
2022/03/10 13:07:22;;;;;;;5.03;4.53;;;;;;;;;;5035248;28;20033;-66
2022/03/10 13:09:51;;;;;;;14.32;9.10;;;;;;;;;;5033749;28;20068;-66
2022/03/10 13:12:43;;;;;;;8.43;7.40;;;;;;;;;;5034954;28;20037;-66
2022/03/10 13:15:10;;;;;;;9.30;8.38;;;;;;;;;;5033821;28;20487;-66
2022/03/10 13:17:37;;;;;;;7.65;6.05;;;;;;;;;;5034820;28;20032;-66
2022/03/10 13:20:10;;;;;;;3.60;3.30;;;;;;;;;;5034878;28;20045;-66
2022/03/10 13:22:36;;;;;;;4.40;4.00;;;;;;;;;;5034554;28;20048;-66
2022/03/10 13:25:02;;;;;;;26.50;14.48;;;;;;;;;;5034882;28;20112;-66
2022/03/10 13:27:30;;;;;;;28.67;16.10;;;;;;;;;;5032725;28;20040;-66
2022/03/10 13:29:56;;;;;;;26.35;12.65;;;;;;;;;;5034431;28;20037;-76
2022/03/10 13:32:26;;;;;;;77.28;33.78;;;;;;;;;;5033345;28;20103;-67
2022/03/10 13:34:54;;;;;;;61.92;32.05;;;;;;;;;;5034736;28;20075;-66
2022/03/10 13:37:20;;;;;;;57.08;26.02;;;;;;;;;;5034516;28;20505;-67
2022/03/10 13:39:47;;;;;;;84.28;39.83;;;;;;;;;;5034395;28;20029;-66
2022/03/10 13:42:19;;;;;;;43.03;21.58;;;;;;;;;;5033740;28;20029;-67
2022/03/10 13:44:44;;;;;;;8.77;5.90;;;;;;;;;;5032571;28;20029;-66
2022/03/10 13:47:10;;;;;;;27.20;17.17;;;;;;;;;;5033766;28;20476;-66
2022/03/10 13:49:43;;;;;;;4.70;4.38;;;;;;;;;;5032582;28;20132;-66
2022/03/10 13:52:13;;;;;;;21.55;13.88;;;;;;;;;;5033165;28;20033;-66
2022/03/10 13:54:39;;;;;;;16.73;10.30;;;;;;;;;;5033601;28;20057;-66
2022/03/10 13:57:04;;;;;;;6.25;5.60;;;;;;;;;;5032769;28;20080;-66
2022/03/10 13:59:30;;;;;;;9.63;7.43;;;;;;;;;;5033438;28;20075;-67
2022/03/10 14:01:56;;;;;;;4.78;4.25;;;;;;;;;;5034081;28;20029;-65
2022/03/10 14:04:21;;;;;;;10.45;6.88;;;;;;;;;;5032828;28;20071;-66
2022/03/10 14:06:48;;;;;;;37.75;22.25;;;;;;;;;;5032832;28;20029;-66
2022/03/10 14:09:18;;;;;;;6.18;5.57;;;;;;;;;;5034185;28;20074;-66
2022/03/10 14:11:44;;;;;;;5.68;4.82;;;;;;;;;;5034245;28;20017;-66
2022/03/10 14:14:10;;;;;;;5.60;5.10;;;;;;;;;;5033577;28;20021;-66
2022/03/10 14:16:36;;;;;;;6.60;6.00;;;;;;;;;;5032728;28;20116;-66
2022/03/10 14:19:04;;;;;;;5.40;5.00;;;;;;;;;;5033945;28;20025;-66
2022/03/10 14:21:30;;;;;;;13.63;11.07;;;;;;;;;;5032515;28;20116;-66
2022/03/10 14:23:56;;;;;;;22.25;16.80;;;;;;;;;;5033563;28;20441;-65
2022/03/10 14:26:23;;;;;;;13.73;9.98;;;;;;;;;;5033746;28;20402;-65
2022/03/10 14:28:50;;;;;;;14.38;10.13;;;;;;;;;;5033124;28;20025;-66
2022/03/10 14:31:17;;;;;;;12.70;11.50;;;;;;;;;;5032492;28;20036;-61
2022/03/10 14:33:45;;;;;;;6.28;5.68;;;;;;;;;;5033745;28;20025;-62
2022/03/10 14:36:12;;;;;;;8.50;4.90;;;;;;;;;;5033578;28;20456;-62
2022/03/10 14:38:38;;;;;;;5.32;4.82;;;;;;;;;;5033610;28;20051;-61
2022/03/10 14:41:05;;;;;;;5.25;4.75;;;;;;;;;;5033058;28;20557;-61
2022/03/10 14:43:30;;;;;;;7.40;5.53;;;;;;;;;;5032428;28;20021;-62
2022/03/10 14:45:56;;;;;;;5.13;4.50;;;;;;;;;;5033641;28;20059;-61
2022/03/10 14:48:22;;;;;;;5.82;5.30;;;;;;;;;;5033751;28;20040;-61
2022/03/10 14:50:47;;;;;;;5.65;5.15;;;;;;;;;;5031621;28;20029;-61
2022/03/10 14:53:13;;;;;;;19.42;12.38;;;;;;;;;;5032724;28;20017;-61